Terminal Aerodrome Forecast
Issued by NWS Cleveland, OH

Home | Current Version | Previous Version | Graphics & Text | Print | Product List | Glossary On
Versions: 1 2 3 4 5 6 7 8 9 10 11 12 13 14 15 16 17
000
FTUS41 KCLE 201600 AAA
TAFYNG
TAF AMD
KYNG 201611Z 2016/2112 35010KT P6SM BKN025 OVC035
     FM201800 32008KT P6SM SCT035 BKN250
     FM202300 35007KT P6SM OVC100
     FM210100 VRB02KT P6SM OVC100=

USA.gov is the U.S. government's official web portal to all federal, state and local government web resources and services.